Time;durP1;ratioP1;P1;durP2;ratioP2;P2;SDS_P1;SDS_P2;PMS_P1;PMS_P2;Temp;Humidity;BMP_temperature;BMP_pressure;BME280_temperature;BME280_humidity;BME280_pressure;Samples;Min_cycle;Max_cycle;Signal;HPM_P1;HPM_P2
2022/03/25 00:01:42;;;;;;;104.47;46.17;;;5.20;99.90;;;;;;5036432;28;20128;-78
2022/03/25 00:04:08;;;;;;;96.63;43.70;;;5.10;99.90;;;;;;5036502;28;20049;-76
2022/03/25 00:06:35;;;;;;;95.75;46.72;;;5.10;99.90;;;;;;5018932;28;20111;-78
2022/03/25 00:09:01;;;;;;;98.82;45.40;;;5.10;99.90;;;;;;5036383;28;20088;-76
2022/03/25 00:11:27;;;;;;;95.30;45.72;;;5.00;99.90;;;;;;5036225;28;20088;-77
2022/03/25 00:13:52;;;;;;;85.43;41.13;;;5.00;99.90;;;;;;5036276;28;20199;-78
2022/03/25 00:16:18;;;;;;;92.45;45.50;;;5.00;99.90;;;;;;5036185;28;20038;-78
2022/03/25 00:18:43;;;;;;;100.90;45.28;;;5.00;99.90;;;;;;5036093;28;20048;-78
2022/03/25 00:21:09;;;;;;;94.82;45.33;;;4.90;99.90;;;;;;5036121;28;20397;-78
2022/03/25 00:23:35;;;;;;;94.18;43.65;;;4.90;99.90;;;;;;5035746;28;20504;-78
2022/03/25 00:26:02;;;;;;;97.43;46.08;;;4.90;99.90;;;;;;5036357;28;20107;-76
2022/03/25 00:28:27;;;;;;;;;;;4.80;99.90;;;;;;5036368;28;20061;-74
2022/03/25 00:30:53;;;;;;;90.05;42.45;;;4.80;99.90;;;;;;5035842;28;20274;-75
2022/03/25 00:33:19;;;;;;;87.45;41.83;;;4.70;99.90;;;;;;5035706;28;20049;-75
2022/03/25 00:35:45;;;;;;;89.95;43.35;;;4.70;99.90;;;;;;5035930;28;20087;-76
2022/03/25 00:38:11;;;;;;;93.63;43.00;;;4.70;99.90;;;;;;5035588;28;20045;-76
2022/03/25 00:40:36;;;;;;;102.18;45.80;;;4.60;99.90;;;;;;5035348;28;20049;-75
2022/03/25 00:43:02;;;;;;;101.60;44.78;;;4.60;99.90;;;;;;5035623;28;20390;-75
2022/03/25 00:45:29;;;;;;;99.15;42.63;;;4.50;99.90;;;;;;5035653;28;20492;-75
2022/03/25 00:47:59;;;;;;;92.07;43.33;;;4.50;99.90;;;;;;5035821;28;20505;-75
2022/03/25 00:50:25;;;;;;;90.53;44.22;;;4.50;99.90;;;;;;5035485;28;20543;-74
2022/03/25 00:52:51;;;;;;;102.82;44.47;;;4.50;99.90;;;;;;5035222;28;20053;-76
2022/03/25 00:55:17;;;;;;;91.47;43.38;;;4.50;99.90;;;;;;5035498;28;20459;-75
2022/03/25 00:57:42;;;;;;;93.82;41.13;;;4.40;99.90;;;;;;5035461;28;20052;-76
2022/03/25 01:00:09;;;;;;;98.07;46.55;;;4.40;99.90;;;;;;5035238;28;20045;-74
2022/03/25 01:02:34;;;;;;;90.72;42.50;;;4.30;99.90;;;;;;5035163;28;20512;-75
2022/03/25 01:05:00;;;;;;;90.22;41.28;;;4.30;99.90;;;;;;5035023;28;20049;-76
2022/03/25 01:07:26;;;;;;;95.57;43.30;;;4.30;99.90;;;;;;5034909;28;20042;-75
2022/03/25 01:09:52;;;;;;;92.55;42.03;;;4.30;99.90;;;;;;5035181;28;20527;-75
2022/03/25 01:12:19;;;;;;;89.22;43.50;;;4.20;99.90;;;;;;5035145;28;20080;-77
2022/03/25 01:14:45;;;;;;;88.65;42.05;;;4.20;99.90;;;;;;5035055;28;20107;-77
2022/03/25 01:17:10;;;;;;;106.85;45.92;;;4.20;99.90;;;;;;5035223;28;20049;-74
2022/03/25 01:19:36;;;;;;;94.97;42.33;;;4.10;99.90;;;;;;5034904;28;20073;-76
2022/03/25 01:22:03;;;;;;;92.72;43.85;;;4.10;99.90;;;;;;5034824;28;20044;-76
2022/03/25 01:24:29;;;;;;;95.78;43.95;;;4.10;99.90;;;;;;5035297;28;20055;-75
2022/03/25 01:26:54;;;;;;;89.25;41.92;;;4.10;99.90;;;;;;5034640;28;20037;-76
2022/03/25 01:29:20;;;;;;;97.50;43.95;;;4.10;99.90;;;;;;5034799;28;20061;-76
2022/03/25 01:31:46;;;;;;;91.88;42.67;;;4.00;99.90;;;;;;5034753;28;20045;-76
2022/03/25 01:34:11;;;;;;;99.28;44.30;;;4.00;99.90;;;;;;5034754;28;20111;-76
2022/03/25 01:36:37;;;;;;;90.68;41.72;;;4.00;99.90;;;;;;5034553;28;20049;-76
2022/03/25 01:39:03;;;;;;;93.68;42.65;;;4.00;99.90;;;;;;5034611;28;20045;-75
2022/03/25 01:41:28;;;;;;;96.82;44.35;;;4.00;99.90;;;;;;5034918;28;20056;-76
2022/03/25 01:43:56;;;;;;;91.45;42.60;;;4.00;99.90;;;;;;5034799;28;20041;-76
2022/03/25 01:46:23;;;;;;;98.35;42.72;;;3.90;99.90;;;;;;5034495;28;20060;-75
2022/03/25 01:48:49;;;;;;;105.68;43.58;;;3.90;99.90;;;;;;5034468;28;20077;-77
2022/03/25 01:51:19;;;;;;;94.45;42.88;;;3.90;99.90;;;;;;5034148;28;20468;-76
2022/03/25 01:53:47;;;;;;;88.25;42.60;;;3.80;99.90;;;;;;5034579;28;20042;-77
2022/03/25 01:56:18;;;;;;;89.85;41.38;;;3.80;99.90;;;;;;5034667;28;20095;-76
2022/03/25 01:58:44;;;;;;;82.05;39.00;;;3.80;99.90;;;;;;5034429;28;20034;-75
2022/03/25 02:01:09;;;;;;;80.53;38.58;;;3.70;99.90;;;;;;5034229;28;20099;-77
2022/03/25 02:03:35;;;;;;;81.35;39.78;;;3.70;99.90;;;;;;5034251;28;20163;-77
2022/03/25 02:06:00;;;;;;;83.95;39.92;;;3.70;99.90;;;;;;5033868;28;20063;-76
2022/03/25 02:08:26;;;;;;;82.57;39.28;;;3.70;99.90;;;;;;5034527;28;20038;-77
2022/03/25 02:10:52;;;;;;;86.25;38.88;;;3.60;99.90;;;;;;5034135;28;20133;-77
2022/03/25 02:13:17;;;;;;;81.10;38.05;;;3.60;99.90;;;;;;5034304;28;20511;-77
2022/03/25 02:15:46;;;;;;;77.18;37.08;;;3.50;99.90;;;;;;5016359;28;20049;-76
2022/03/25 02:18:15;;;;;;;72.70;36.28;;;3.50;99.90;;;;;;5033627;28;20090;-75
2022/03/25 02:20:42;;;;;;;77.70;36.15;;;3.50;99.90;;;;;;5034317;28;20057;-77
2022/03/25 02:23:08;;;;;;;70.55;35.80;;;3.40;99.90;;;;;;5033957;28;20240;-76
2022/03/25 02:25:34;;;;;;;68.70;34.10;;;3.30;99.90;;;;;;5033842;28;20120;-76
2022/03/25 02:28:03;;;;;;;71.00;33.92;;;3.30;99.90;;;;;;5034080;28;20068;-76
2022/03/25 02:30:29;;;;;;;66.10;34.13;;;3.20;99.90;;;;;;5033863;28;20057;-76
2022/03/25 02:33:00;;;;;;;67.70;34.38;;;3.10;99.90;;;;;;5033468;28;20145;-77
2022/03/25 02:35:38;;;;;;;59.58;31.33;;;3.10;99.90;;;;;;5033810;28;20481;-75
2022/03/25 02:38:05;;;;;;;70.65;35.75;;;3.10;99.90;;;;;;5033608;28;20053;-77
2022/03/25 02:40:31;;;;;;;60.22;31.65;;;3.10;99.90;;;;;;5033743;28;20084;-76
2022/03/25 02:42:56;;;;;;;63.67;32.42;;;3.00;99.90;;;;;;5034070;28;20128;-77
2022/03/25 02:45:22;;;;;;;59.20;32.22;;;3.00;99.90;;;;;;5033636;28;20053;-75
2022/03/25 02:47:48;;;;;;;68.80;34.30;;;3.00;99.90;;;;;;5032345;28;20084;-77
2022/03/25 02:50:14;;;;;;;66.93;34.03;;;3.00;99.90;;;;;;5033575;28;20396;-75
2022/03/25 02:52:41;;;;;;;63.33;32.25;;;2.90;99.90;;;;;;5033510;28;20081;-76
2022/03/25 02:55:08;;;;;;;66.68;34.10;;;2.90;99.90;;;;;;5033548;28;20053;-77
2022/03/25 02:57:34;;;;;;;;;;;2.80;99.90;;;;;;5033961;28;20092;-76
2022/03/25 02:59:59;;;;;;;64.15;32.35;;;2.80;99.90;;;;;;5033169;28;20356;-77
2022/03/25 03:02:26;;;;;;;61.50;30.95;;;2.70;99.90;;;;;;5033305;28;20132;-76
2022/03/25 03:04:51;;;;;;;62.72;33.47;;;2.70;99.90;;;;;;5034843;28;20092;-76
2022/03/25 03:07:17;;;;;;;66.13;34.13;;;2.70;99.90;;;;;;5037821;28;20045;-75
2022/03/25 03:09:43;;;;;;;64.45;32.83;;;2.60;99.90;;;;;;5037845;28;20072;-77
2022/03/25 03:12:10;;;;;;;61.90;32.88;;;2.60;99.90;;;;;;5037598;28;20095;-76
2022/03/25 03:14:36;;;;;;;64.55;34.13;;;2.60;99.90;;;;;;5037218;28;20049;-77
2022/03/25 03:17:04;;;;;;;64.43;33.22;;;2.60;99.90;;;;;;5037217;28;20124;-75
2022/03/25 03:19:30;;;;;;;71.28;36.47;;;2.50;99.90;;;;;;5037848;28;20392;-76
2022/03/25 03:21:55;;;;;;;74.68;36.28;;;2.50;99.90;;;;;;5037231;28;20124;-77
2022/03/25 03:24:21;;;;;;;79.93;37.25;;;2.60;99.90;;;;;;5037166;28;20370;-75
2022/03/25 03:26:46;;;;;;;94.97;38.53;;;2.60;99.90;;;;;;5036023;28;20049;-77
2022/03/25 03:29:13;;;;;;;136.18;38.72;;;2.60;99.90;;;;;;5037233;28;20120;-75
2022/03/25 03:31:39;;;;;;;87.65;37.97;;;2.60;99.90;;;;;;5037018;28;20050;-76
2022/03/25 03:34:04;;;;;;;92.15;36.65;;;2.70;99.90;;;;;;5036760;28;20155;-75
2022/03/25 03:36:30;;;;;;;93.95;37.55;;;2.70;99.90;;;;;;5037228;28;20045;-76
2022/03/25 03:38:55;;;;;;;74.95;35.95;;;2.70;99.90;;;;;;5036911;28;20108;-76
2022/03/25 03:41:21;;;;;;;82.05;38.85;;;2.70;99.90;;;;;;5036833;28;20045;-76
2022/03/25 03:43:46;;;;;;;76.15;34.05;;;2.70;99.90;;;;;;5036849;28;20052;-75
2022/03/25 03:46:12;;;;;;;84.57;37.10;;;2.70;99.90;;;;;;5036742;28;20046;-75
2022/03/25 03:48:37;;;;;;;124.53;40.60;;;2.70;99.90;;;;;;5036748;28;20076;-76
2022/03/25 03:51:03;;;;;;;88.32;37.78;;;2.70;99.90;;;;;;5036722;28;20045;-75
2022/03/25 03:53:28;;;;;;;78.88;38.33;;;2.80;99.90;;;;;;5035855;28;20052;-74
2022/03/25 03:55:54;;;;;;;129.50;38.97;;;2.70;99.90;;;;;;5036418;28;20132;-76
2022/03/25 03:58:22;;;;;;;114.32;36.33;;;2.70;99.90;;;;;;5036510;28;20038;-76
2022/03/25 04:00:49;;;;;;;87.63;36.63;;;2.70;99.90;;;;;;5036374;28;20053;-75
2022/03/25 04:03:14;;;;;;;178.07;37.35;;;2.70;99.90;;;;;;5036429;28;20125;-76
2022/03/25 04:05:40;;;;;;;124.85;37.88;;;2.70;99.90;;;;;;5036582;28;20509;-75
2022/03/25 04:08:07;;;;;;;229.77;38.75;;;2.70;99.90;;;;;;5035178;28;20045;-75
2022/03/25 04:10:33;;;;;;;283.40;41.67;;;2.70;99.90;;;;;;5036497;28;20053;-76
2022/03/25 04:12:59;;;;;;;207.65;38.58;;;2.60;99.90;;;;;;5036263;28;20103;-75
2022/03/25 04:15:25;;;;;;;133.68;37.10;;;2.50;99.90;;;;;;5036121;28;20045;-75
2022/03/25 04:17:50;;;;;;;117.43;34.45;;;2.50;99.90;;;;;;5036184;28;20077;-77
2022/03/25 04:20:16;;;;;;;108.20;32.72;;;2.50;99.90;;;;;;5035863;28;20046;-76
2022/03/25 04:22:44;;;;;;;80.87;36.07;;;2.50;99.90;;;;;;5036227;28;20492;-76
2022/03/25 04:25:09;;;;;;;;;;;2.40;99.90;;;;;;5036679;28;20276;-76
2022/03/25 04:27:55;;;;;;;79.47;33.90;;;2.50;99.90;;;;;;5036116;28;19928;-74
2022/03/25 04:30:26;;;;;;;86.63;32.90;;;2.40;99.90;;;;;;5036060;28;20049;-76
2022/03/25 04:32:51;;;;;;;92.78;31.98;;;2.40;99.90;;;;;;5036022;28;20045;-75
2022/03/25 04:35:18;;;;;;;90.78;32.22;;;2.40;99.90;;;;;;5035901;28;20504;-76
2022/03/25 04:37:44;;;;;;;71.32;32.35;;;2.40;99.90;;;;;;5035833;28;20108;-74
2022/03/25 04:40:17;;;;;;;127.10;34.30;;;2.40;99.90;;;;;;5035656;28;20551;-77
2022/03/25 04:42:43;;;;;;;109.68;33.47;;;2.30;99.90;;;;;;5035809;28;20045;-75
2022/03/25 04:45:09;;;;;;;143.95;31.52;;;2.30;99.90;;;;;;5035686;28;20172;-75
2022/03/25 04:47:34;;;;;;;117.55;33.88;;;2.20;99.90;;;;;;5018147;28;20199;-77
2022/03/25 04:50:00;;;;;;;164.20;35.90;;;2.20;99.90;;;;;;5035593;28;20038;-74
2022/03/25 04:52:26;;;;;;;172.55;36.70;;;2.20;99.90;;;;;;5035558;28;20049;-76
2022/03/25 04:54:51;;;;;;;269.20;36.55;;;2.10;99.90;;;;;;5034300;28;20049;-76
2022/03/25 04:57:17;;;;;;;79.50;31.38;;;2.00;99.90;;;;;;5035136;28;20084;-76
2022/03/25 04:59:43;;;;;;;78.90;32.08;;;2.00;99.90;;;;;;5035281;28;20063;-76
2022/03/25 05:02:10;;;;;;;106.70;31.80;;;2.00;99.90;;;;;;5035349;28;20095;-75
2022/03/25 05:04:35;;;;;;;;;;;2.00;99.90;;;;;;5035753;28;20485;-75
2022/03/25 05:07:02;;;;;;;77.13;30.92;;;2.00;99.90;;;;;;5035212;28;19921;-76
2022/03/25 05:09:27;;;;;;;113.68;29.83;;;2.00;99.90;;;;;;5017269;28;20052;-75
2022/03/25 05:11:53;;;;;;;94.65;30.20;;;2.00;99.90;;;;;;5035180;28;20132;-77
2022/03/25 05:14:19;;;;;;;78.97;30.27;;;2.00;99.90;;;;;;5035180;28;20037;-75
2022/03/25 05:16:44;;;;;;;111.22;32.22;;;1.90;99.90;;;;;;5035642;28;20107;-75
2022/03/25 05:19:10;;;;;;;83.63;32.25;;;2.00;99.90;;;;;;5035232;28;20051;-77
2022/03/25 05:21:37;;;;;;;109.43;32.13;;;1.90;99.90;;;;;;5034857;28;20481;-77
2022/03/25 05:24:03;;;;;;;76.97;29.98;;;1.90;99.90;;;;;;5035364;28;20064;-75
2022/03/25 05:26:28;;;;;;;152.20;35.33;;;1.90;99.90;;;;;;5034794;28;20041;-77
2022/03/25 05:28:54;;;;;;;101.13;31.38;;;1.90;99.90;;;;;;5034232;28;20050;-76
2022/03/25 05:31:19;;;;;;;115.10;33.95;;;1.90;99.90;;;;;;5034760;28;20499;-77
2022/03/25 05:33:45;;;;;;;95.47;32.95;;;1.90;99.90;;;;;;5034764;28;20102;-76
2022/03/25 05:36:11;;;;;;;70.55;32.85;;;1.90;99.90;;;;;;5034585;28;20050;-73
2022/03/25 05:38:36;;;;;;;76.60;29.67;;;1.90;99.90;;;;;;5034672;28;20581;-76
2022/03/25 05:41:02;;;;;;;86.70;30.60;;;1.90;99.90;;;;;;5034583;28;20504;-73
2022/03/25 05:43:28;;;;;;;96.20;32.45;;;1.90;99.90;;;;;;5034498;28;20523;-75
2022/03/25 05:45:54;;;;;;;172.13;31.53;;;1.90;99.90;;;;;;5034490;28;20056;-76
2022/03/25 05:48:19;;;;;;;73.20;30.35;;;1.90;99.90;;;;;;5034471;28;20042;-75
2022/03/25 05:50:45;;;;;;;81.80;32.03;;;2.00;99.90;;;;;;5017280;28;20136;-75
2022/03/25 05:53:10;;;;;;;72.63;32.58;;;1.90;99.90;;;;;;5034447;28;20412;-75
2022/03/25 05:55:36;;;;;;;76.50;33.60;;;2.00;99.90;;;;;;5034385;28;20045;-75
2022/03/25 05:58:02;;;;;;;81.97;31.67;;;2.10;99.90;;;;;;5034156;28;20045;-75
2022/03/25 06:00:28;;;;;;;64.40;33.20;;;2.00;99.90;;;;;;5034310;28;20049;-75
2022/03/25 06:02:53;;;;;;;74.78;30.17;;;2.10;99.90;;;;;;5034233;28;20076;-75
2022/03/25 06:05:19;;;;;;;63.97;32.08;;;2.10;99.90;;;;;;5034146;28;20079;-75
2022/03/25 06:07:45;;;;;;;63.83;31.80;;;2.10;99.90;;;;;;5034218;28;20156;-75
2022/03/25 06:10:13;;;;;;;68.18;32.63;;;2.10;99.90;;;;;;5034214;28;20064;-77
2022/03/25 06:12:39;;;;;;;62.22;31.42;;;2.20;99.90;;;;;;5033741;28;20050;-76
2022/03/25 06:15:05;;;;;;;62.95;31.40;;;2.20;99.90;;;;;;5034059;28;20049;-76
2022/03/25 06:17:31;;;;;;;79.97;32.17;;;2.30;99.90;;;;;;5033903;28;20119;-74
2022/03/25 06:19:57;;;;;;;67.07;32.13;;;2.30;99.90;;;;;;5034237;28;20465;-76
2022/03/25 06:22:27;;;;;;;68.18;32.90;;;2.30;99.90;;;;;;5033882;28;20096;-75
2022/03/25 06:24:53;;;;;;;67.82;32.70;;;2.40;99.90;;;;;;5033854;28;20091;-74
2022/03/25 06:27:19;;;;;;;63.95;32.00;;;2.40;99.90;;;;;;5033841;28;20124;-76
2022/03/25 06:29:44;;;;;;;67.22;31.90;;;2.50;99.90;;;;;;5034027;28;20208;-77
2022/03/25 06:32:10;;;;;;;61.58;32.30;;;2.60;99.90;;;;;;5033351;28;20056;-74
2022/03/25 06:34:36;;;;;;;71.07;32.80;;;2.60;99.90;;;;;;5034177;28;20091;-75
2022/03/25 06:37:02;;;;;;;61.67;32.78;;;2.70;99.90;;;;;;5033713;28;20468;-74
2022/03/25 06:39:29;;;;;;;67.38;33.85;;;2.70;99.90;;;;;;5032839;28;20048;-74
2022/03/25 06:41:54;;;;;;;57.30;30.83;;;2.80;99.90;;;;;;5033636;28;20054;-74
2022/03/25 06:44:20;;;;;;;61.13;31.98;;;2.80;99.90;;;;;;5033729;28;20519;-75
2022/03/25 06:46:46;;;;;;;62.65;32.83;;;2.90;99.90;;;;;;5033966;28;20456;-74
2022/03/25 06:49:12;;;;;;;56.78;30.55;;;2.90;99.90;;;;;;5033810;28;20088;-76
2022/03/25 06:51:38;;;;;;;58.25;30.83;;;2.90;99.90;;;;;;5016214;28;20045;-75
2022/03/25 06:54:04;;;;;;;64.13;33.47;;;3.00;99.90;;;;;;5033472;28;20496;-75
2022/03/25 06:56:33;;;;;;;62.13;31.80;;;3.00;99.90;;;;;;5033460;28;20041;-74
2022/03/25 06:58:59;;;;;;;57.80;30.75;;;3.00;99.90;;;;;;5033452;28;20037;-76
2022/03/25 07:01:25;;;;;;;56.90;30.13;;;3.10;99.90;;;;;;5032060;28;20546;-76
2022/03/25 07:03:51;;;;;;;53.80;27.92;;;3.10;99.90;;;;;;5033622;28;20049;-77
2022/03/25 07:06:22;;;;;;;60.97;32.72;;;3.20;99.90;;;;;;5033434;28;20037;-76
2022/03/25 07:08:52;;;;;;;58.53;31.15;;;3.30;99.90;;;;;;5033396;28;20371;-77
2022/03/25 07:11:18;;;;;;;64.05;32.95;;;3.40;99.90;;;;;;5031854;28;20493;-78
2022/03/25 07:13:46;;;;;;;64.70;32.50;;;3.50;99.90;;;;;;5032869;28;20128;-78
2022/03/25 07:16:11;;;;;;;67.60;34.90;;;3.60;99.90;;;;;;5033394;28;20046;-79
2022/03/25 07:18:37;;;;;;;64.20;33.47;;;3.80;99.90;;;;;;5033281;28;20048;-78
2022/03/25 07:21:04;;;;;;;70.22;35.45;;;4.00;99.90;;;;;;5033412;28;20049;-76
2022/03/25 07:23:30;;;;;;;72.70;34.53;;;4.10;99.90;;;;;;5033259;28;20152;-77
2022/03/25 07:25:55;;;;;;;71.72;34.95;;;4.30;99.90;;;;;;5033021;28;20550;-78
2022/03/25 07:28:21;;;;;;;69.13;32.92;;;4.40;99.90;;;;;;5033131;28;20049;-78
2022/03/25 07:30:47;;;;;;;66.18;32.47;;;4.60;99.90;;;;;;5033058;28;20042;-76
2022/03/25 07:33:12;;;;;;;78.10;35.15;;;4.80;99.90;;;;;;5033368;28;20045;-77
2022/03/25 07:35:38;;;;;;;68.90;33.60;;;5.00;99.90;;;;;;5033289;28;20045;-77
2022/03/25 07:38:06;;;;;;;76.97;35.55;;;5.20;99.90;;;;;;5033049;28;20054;-78
2022/03/25 07:40:32;;;;;;;70.22;33.53;;;5.40;99.90;;;;;;5033081;28;20111;-78
2022/03/25 07:42:58;;;;;;;66.10;33.22;;;5.60;99.90;;;;;;5033179;28;20052;-77
2022/03/25 07:45:24;;;;;;;69.22;35.40;;;5.80;99.90;;;;;;5033063;28;20511;-77
2022/03/25 07:47:50;;;;;;;62.65;31.23;;;5.90;99.90;;;;;;5033120;28;20045;-77
2022/03/25 07:50:23;;;;;;;65.20;32.03;;;6.10;99.90;;;;;;5033386;28;20045;-77
2022/03/25 07:52:51;;;;;;;64.53;31.98;;;6.20;99.90;;;;;;5036575;28;20037;-76
2022/03/25 07:55:18;;;;;;;59.40;31.33;;;6.40;99.90;;;;;;5036633;28;20088;-77
2022/03/25 07:57:45;;;;;;;59.28;31.08;;;6.50;99.90;;;;;;5036602;28;20050;-77
2022/03/25 08:00:12;;;;;;;60.42;30.70;;;6.60;99.90;;;;;;5036263;28;20465;-76
2022/03/25 08:02:43;;;;;;;59.00;32.30;;;6.70;99.90;;;;;;5036465;28;20049;-76
2022/03/25 08:05:10;;;;;;;58.33;29.92;;;6.80;99.90;;;;;;5036508;28;20048;-76
2022/03/25 08:07:48;;;;;;;59.08;29.70;;;7.00;99.90;;;;;;5036357;28;20058;-76
2022/03/25 08:10:19;;;;;;;53.13;28.40;;;7.20;99.90;;;;;;5036563;28;20103;-76
2022/03/25 08:12:44;;;;;;;60.15;31.67;;;7.40;99.90;;;;;;5036577;28;20038;-76
2022/03/25 08:15:10;;;;;;;54.58;29.92;;;7.50;99.90;;;;;;5035021;28;20060;-76
2022/03/25 08:17:50;;;;;;;60.50;30.33;;;7.60;99.90;;;;;;5055182;28;20045;-76
2022/03/25 08:20:23;;;;;;;53.28;29.73;;;7.60;99.90;;;;;;5055794;28;20124;-74
2022/03/25 08:22:49;;;;;;;56.75;30.85;;;7.70;99.90;;;;;;5056113;28;20057;-74
2022/03/25 08:28:01;;;;;;;55.53;31.00;;;7.70;99.90;;;;;;5055576;28;20052;-76
2022/03/25 08:30:33;;;;;;;53.55;29.70;;;7.80;99.90;;;;;;5038109;28;20044;-77
2022/03/25 08:33:00;;;;;;;53.33;30.00;;;7.90;99.90;;;;;;5056148;28;20076;-77
2022/03/25 08:35:27;;;;;;;48.28;28.35;;;7.90;99.90;;;;;;5055751;28;20484;-79
2022/03/25 08:37:54;;;;;;;53.85;29.75;;;8.10;99.90;;;;;;5055823;28;20056;-76
2022/03/25 08:40:23;;;;;;;53.22;28.67;;;8.30;99.90;;;;;;5055689;28;20469;-77
2022/03/25 08:42:49;;;;;;;49.53;27.83;;;8.30;99.90;;;;;;5055695;28;20044;-78
2022/03/25 08:45:16;;;;;;;48.08;28.83;;;8.50;99.90;;;;;;5033823;28;20192;-77
2022/03/25 08:47:45;;;;;;;46.58;28.67;;;8.50;99.90;;;;;;5015779;28;20125;-78
2022/03/25 08:50:13;;;;;;;50.47;28.95;;;8.60;99.90;;;;;;5015647;28;20088;-76
2022/03/25 08:52:40;;;;;;;51.25;29.77;;;8.80;99.90;;;;;;5015630;28;20053;-78
2022/03/25 08:55:06;;;;;;;;;;;8.90;99.90;;;;;;5015282;28;20052;-78
2022/03/25 08:57:32;;;;;;;50.13;26.40;;;9.00;99.90;;;;;;5015033;28;20284;-78
2022/03/25 08:59:58;;;;;;;50.17;27.37;;;9.10;99.90;;;;;;4997449;28;20049;-78
2022/03/25 09:02:23;;;;;;;51.20;28.38;;;9.30;99.90;;;;;;5014384;28;20538;-78
2022/03/25 09:04:49;;;;;;;56.58;29.02;;;9.40;99.90;;;;;;5015117;28;20140;-79
2022/03/25 09:07:15;;;;;;;47.50;27.65;;;9.60;99.90;;;;;;5014935;28;20475;-75
2022/03/25 09:09:40;;;;;;;51.90;29.00;;;9.70;99.90;;;;;;5015520;28;20052;-76
2022/03/25 09:12:08;;;;;;;51.83;29.25;;;9.90;99.90;;;;;;5015361;28;20052;-76
2022/03/25 09:14:33;;;;;;;52.25;28.58;;;10.00;99.90;;;;;;5015226;28;20046;-78
2022/03/25 09:16:59;;;;;;;50.65;27.48;;;10.10;99.90;;;;;;5015396;28;20437;-78
2022/03/25 09:19:25;;;;;;;51.78;28.65;;;10.20;99.90;;;;;;5015214;28;20048;-78
2022/03/25 09:21:50;;;;;;;50.00;27.60;;;10.30;99.90;;;;;;5015226;28;20128;-78
2022/03/25 09:24:16;;;;;;;55.25;29.55;;;10.50;99.90;;;;;;5015008;28;20045;-79
2022/03/25 09:26:41;;;;;;;46.45;26.77;;;10.60;99.90;;;;;;5015201;28;20045;-79
2022/03/25 09:29:08;;;;;;;51.85;28.17;;;10.70;99.90;;;;;;5014972;28;20104;-78
2022/03/25 09:31:33;;;;;;;53.13;28.42;;;10.80;99.90;;;;;;5015588;28;20057;-79
2022/03/25 09:35:08;;;;;;;49.97;29.83;;;11.00;99.90;;;;;;5015053;28;20046;-78
2022/03/25 09:36:44;;;;;;;48.50;26.50;;;11.10;99.90;;;;;;5014931;28;20081;-76
2022/03/25 09:39:10;;;;;;;45.22;27.80;;;11.20;99.90;;;;;;5014775;28;20081;-76
2022/03/25 09:41:36;;;;;;;50.25;27.23;;;11.40;99.90;;;;;;5015111;28;20129;-76
2022/03/25 09:44:07;;;;;;;48.67;26.75;;;11.50;99.90;;;;;;5014870;28;20177;-76
2022/03/25 09:46:32;;;;;;;47.90;28.83;;;11.60;99.90;;;;;;5014449;28;20520;-76
2022/03/25 09:48:58;;;;;;;48.20;29.10;;;11.80;99.90;;;;;;5014992;28;20046;-77
2022/03/25 09:51:23;;;;;;;50.05;26.92;;;11.90;99.90;;;;;;5014742;28;20046;-77
2022/03/25 09:53:50;;;;;;;48.75;27.52;;;12.00;99.90;;;;;;5014779;28;20136;-77
2022/03/25 09:56:16;;;;;;;43.63;26.42;;;12.30;99.90;;;;;;5014500;28;20057;-78
2022/03/25 09:58:41;;;;;;;45.40;27.65;;;12.30;99.90;;;;;;4997830;28;20050;-78
2022/03/25 10:01:07;;;;;;;47.22;27.70;;;12.40;99.90;;;;;;5014571;28;20053;-77
2022/03/25 10:03:37;;;;;;;45.47;27.55;;;12.50;99.90;;;;;;4996914;28;20049;-78
2022/03/25 10:06:10;;;;;;;44.78;26.17;;;12.50;99.90;;;;;;4996923;28;20386;-78
2022/03/25 10:08:38;;;;;;;47.35;26.23;;;12.60;99.90;;;;;;4997106;28;20045;-78
2022/03/25 10:11:30;;;;;;;47.25;27.60;;;12.70;99.90;;;;;;5014439;28;20129;-77
2022/03/25 10:14:15;;;;;;;42.92;25.98;;;12.80;99.90;;;;;;4997061;28;20057;-77
2022/03/25 10:16:46;;;;;;;47.20;26.33;;;13.00;99.90;;;;;;5014284;28;20096;-78
2022/03/25 10:19:17;;;;;;;43.67;27.02;;;13.10;99.90;;;;;;5014096;28;20056;-77
2022/03/25 10:21:59;;;;;;;49.75;27.17;;;13.20;99.90;;;;;;4996831;28;20042;-76
2022/03/25 10:24:52;;;;;;;44.00;25.67;;;13.30;99.90;;;;;;5014180;28;20438;-76
2022/03/25 10:27:30;;;;;;;44.10;26.27;;;13.30;99.90;;;;;;5014155;28;20420;-77
2022/03/25 10:29:56;;;;;;;45.00;27.98;;;13.50;99.90;;;;;;5014866;28;20054;-78
2022/03/25 10:32:26;;;;;;;48.00;27.55;;;13.60;99.90;;;;;;5014060;28;20077;-77
2022/03/25 10:35:09;;;;;;;44.38;28.38;;;13.70;99.90;;;;;;5014413;28;20045;-77
2022/03/25 10:37:54;;;;;;;47.90;26.17;;;13.70;99.90;;;;;;5013969;28;20038;-77
2022/03/25 10:40:20;;;;;;;43.08;26.88;;;13.80;99.90;;;;;;5014199;28;20050;-78
2022/03/25 10:43:08;;;;;;;45.92;26.65;;;13.90;99.90;;;;;;5014004;28;20504;-77
2022/03/25 10:45:39;;;;;;;44.80;26.65;;;14.10;99.90;;;;;;5013968;28;20138;-76
2022/03/25 10:48:20;;;;;;;43.92;27.50;;;14.30;99.90;;;;;;5014094;28;20375;-76
2022/03/25 10:50:59;;;;;;;48.72;26.90;;;14.40;99.90;;;;;;5013761;28;20056;-78
2022/03/25 10:53:27;;;;;;;44.33;27.60;;;14.50;99.90;;;;;;5013850;28;20053;-78
2022/03/25 10:55:58;;;;;;;43.03;25.73;;;14.50;99.90;;;;;;5013448;28;20370;-78
2022/03/25 10:58:24;;;;;;;46.65;26.75;;;14.50;99.90;;;;;;5013977;28;20057;-78
2022/03/25 11:00:50;;;;;;;52.20;25.88;;;14.40;99.90;;;;;;5013866;28;20042;-77
2022/03/25 11:03:16;;;;;;;44.85;24.05;;;14.50;99.90;;;;;;5013706;28;20470;-79
2022/03/25 11:05:43;;;;;;;39.28;24.70;;;14.60;99.90;;;;;;5014246;28;20046;-78
2022/03/25 11:08:09;;;;;;;46.22;25.30;;;14.70;99.90;;;;;;5013219;28;20053;-79
2022/03/25 11:10:35;;;;;;;45.63;26.25;;;14.70;99.90;;;;;;4996288;28;20085;-79
2022/03/25 11:13:03;;;;;;;43.05;26.90;;;14.80;99.90;;;;;;5013475;28;20093;-76
2022/03/25 11:15:30;;;;;;;39.35;20.90;;;14.90;99.90;;;;;;5013767;28;20088;-78
2022/03/25 11:17:56;;;;;;;46.00;24.48;;;15.10;99.90;;;;;;5013278;28;20129;-77
2022/03/25 11:20:26;;;;;;;46.60;25.67;;;15.10;99.90;;;;;;5013851;28;20363;-79
2022/03/25 11:23:00;;;;;;;42.55;25.45;;;15.20;99.90;;;;;;5012765;28;20046;-76
2022/03/25 11:25:29;;;;;;;38.42;24.15;;;15.20;99.90;;;;;;5014413;28;20095;-77
2022/03/25 11:28:03;;;;;;;41.80;24.02;;;15.30;99.90;;;;;;5017095;28;20497;-77
2022/03/25 11:30:33;;;;;;;43.55;24.20;;;15.40;99.90;;;;;;5017305;28;20054;-76
2022/03/25 11:33:04;;;;;;;39.88;23.77;;;15.50;99.90;;;;;;5017307;28;20042;-77
2022/03/25 11:35:35;;;;;;;41.65;23.83;;;15.40;99.90;;;;;;5016895;28;20595;-76
2022/03/25 11:38:10;;;;;;;39.75;23.50;;;15.50;99.90;;;;;;5017191;28;20053;-75
2022/03/25 11:40:39;;;;;;;41.78;22.52;;;15.70;99.90;;;;;;5016871;28;20482;-76
2022/03/25 11:43:15;;;;;;;45.92;23.13;;;15.80;99.90;;;;;;5017151;28;20050;-79
2022/03/25 11:45:42;;;;;;;42.60;22.75;;;15.90;99.90;;;;;;5017046;28;20127;-79
2022/03/25 11:48:08;;;;;;;39.50;22.65;;;16.00;99.90;;;;;;5017112;28;20112;-78
2022/03/25 11:50:43;;;;;;;36.77;21.90;;;16.10;99.90;;;;;;5017028;28;20049;-76
2022/03/25 11:53:11;;;;;;;40.72;22.10;;;16.20;99.90;;;;;;5017017;28;20512;-78
2022/03/25 11:56:01;;;;;;;36.75;22.63;;;16.30;99.90;;;;;;5016808;28;20092;-79
2022/03/25 11:58:28;;;;;;;43.75;23.25;;;16.40;99.90;;;;;;5015813;28;20056;-76
2022/03/25 12:01:03;;;;;;;36.95;22.35;;;16.40;99.90;;;;;;5016744;28;20041;-77
2022/03/25 12:03:49;;;;;;;44.63;22.15;;;16.60;99.30;;;;;;5016875;28;20502;-77
2022/03/25 12:06:17;;;;;;;42.03;24.33;;;16.70;99.10;;;;;;5017376;28;20103;-77
2022/03/25 12:09:02;;;;;;;39.50;22.23;;;16.70;98.60;;;;;;5015502;28;20069;-80
2022/03/25 12:11:58;;;;;;;37.92;23.45;;;16.70;98.10;;;;;;5016648;28;20050;-78
2022/03/25 12:14:31;;;;;;;38.05;21.35;;;16.80;98.20;;;;;;4999668;28;20894;-76
2022/03/25 12:17:07;;;;;;;37.63;21.45;;;16.90;98.50;;;;;;5016516;28;20516;-78
2022/03/25 12:19:38;;;;;;;39.47;22.23;;;17.00;98.00;;;;;;4999397;28;20049;-76
2022/03/25 12:22:19;;;;;;;35.92;21.60;;;17.10;97.40;;;;;;5016464;28;20052;-76
2022/03/25 12:24:50;;;;;;;30.92;19.33;;;17.30;95.80;;;;;;5016216;28;20096;-78
2022/03/25 12:27:16;;;;;;;33.30;20.65;;;17.20;95.60;;;;;;5016335;28;20037;-78
2022/03/25 12:29:47;;;;;;;35.38;18.92;;;17.20;96.30;;;;;;5016250;28;20052;-79
2022/03/25 12:32:14;;;;;;;34.15;18.40;;;17.30;96.20;;;;;;4999254;28;20046;-79
2022/03/25 12:34:59;;;;;;;35.97;19.52;;;17.30;95.50;;;;;;4998850;28;20494;-78
2022/03/25 12:37:46;;;;;;;32.25;17.70;;;17.40;96.00;;;;;;5014883;28;20037;-79
2022/03/25 12:40:23;;;;;;;32.70;17.47;;;17.50;95.80;;;;;;5016056;28;20513;-78
2022/03/25 12:42:53;;;;;;;30.90;17.10;;;17.60;93.20;;;;;;5015855;28;20442;-79